sensor_id;sensor_type;location;lat;lon;timestamp;temperature;humidity
32217;DHT22;67098;51.140;4.088;2023-02-15T00:01:32;7.00;84.70
32217;DHT22;67098;51.140;4.088;2023-02-15T00:03:58;6.90;84.60
32217;DHT22;67098;51.140;4.088;2023-02-15T00:06:23;6.90;84.90
32217;DHT22;67098;51.140;4.088;2023-02-15T00:08:49;6.80;85.10
32217;DHT22;67098;51.140;4.088;2023-02-15T00:11:17;6.80;85.30
32217;DHT22;67098;51.140;4.088;2023-02-15T00:14:15;6.80;85.40
32217;DHT22;67098;51.140;4.088;2023-02-15T00:16:43;6.80;85.10
32217;DHT22;67098;51.140;4.088;2023-02-15T00:19:10;6.80;85.30
32217;DHT22;67098;51.140;4.088;2023-02-15T00:21:36;6.70;85.20
32217;DHT22;67098;51.140;4.088;2023-02-15T00:24:04;6.80;85.00
32217;DHT22;67098;51.140;4.088;2023-02-15T00:26:30;6.80;84.90
32217;DHT22;67098;51.140;4.088;2023-02-15T00:28:57;6.80;84.80
32217;DHT22;67098;51.140;4.088;2023-02-15T00:31:25;6.70;85.00
32217;DHT22;67098;51.140;4.088;2023-02-15T00:33:50;6.70;85.20
32217;DHT22;67098;51.140;4.088;2023-02-15T00:36:16;6.80;85.00
32217;DHT22;67098;51.140;4.088;2023-02-15T00:38:42;6.70;85.10
32217;DHT22;67098;51.140;4.088;2023-02-15T00:41:08;6.70;85.10
32217;DHT22;67098;51.140;4.088;2023-02-15T00:43:35;6.70;85.20
32217;DHT22;67098;51.140;4.088;2023-02-15T00:46:02;6.60;85.10
32217;DHT22;67098;51.140;4.088;2023-02-15T00:48:28;6.60;85.20
32217;DHT22;67098;51.140;4.088;2023-02-15T00:50:56;6.70;85.10
32217;DHT22;67098;51.140;4.088;2023-02-15T00:53:22;6.70;84.80
32217;DHT22;67098;51.140;4.088;2023-02-15T00:55:48;6.60;84.50
32217;DHT22;67098;51.140;4.088;2023-02-15T00:58:15;6.60;84.60
32217;DHT22;67098;51.140;4.088;2023-02-15T01:00:42;6.60;84.40
32217;DHT22;67098;51.140;4.088;2023-02-15T01:03:09;6.60;84.10
32217;DHT22;67098;51.140;4.088;2023-02-15T01:05:35;6.50;84.10
32217;DHT22;67098;51.140;4.088;2023-02-15T01:08:01;6.50;84.40
32217;DHT22;67098;51.140;4.088;2023-02-15T01:10:27;6.50;84.20
32217;DHT22;67098;51.140;4.088;2023-02-15T01:12:53;6.40;84.40
32217;DHT22;67098;51.140;4.088;2023-02-15T01:15:19;6.50;84.20
32217;DHT22;67098;51.140;4.088;2023-02-15T01:17:44;6.40;84.20
32217;DHT22;67098;51.140;4.088;2023-02-15T01:20:17;6.30;84.40
32217;DHT22;67098;51.140;4.088;2023-02-15T01:22:42;6.30;84.00
32217;DHT22;67098;51.140;4.088;2023-02-15T01:25:08;6.30;84.40
32217;DHT22;67098;51.140;4.088;2023-02-15T01:27:34;6.30;84.60
32217;DHT22;67098;51.140;4.088;2023-02-15T01:29:59;6.30;85.10
32217;DHT22;67098;51.140;4.088;2023-02-15T01:32:25;6.30;84.80
32217;DHT22;67098;51.140;4.088;2023-02-15T01:34:52;6.30;84.90
32217;DHT22;67098;51.140;4.088;2023-02-15T01:37:18;6.30;84.60
32217;DHT22;67098;51.140;4.088;2023-02-15T01:39:43;6.20;84.70
32217;DHT22;67098;51.140;4.088;2023-02-15T01:42:12;6.10;84.70
32217;DHT22;67098;51.140;4.088;2023-02-15T01:44:51;6.10;84.30
32217;DHT22;67098;51.140;4.088;2023-02-15T01:47:26;6.10;85.00
32217;DHT22;67098;51.140;4.088;2023-02-15T01:50:13;6.00;85.30
32217;DHT22;67098;51.140;4.088;2023-02-15T01:52:46;5.90;85.60
32217;DHT22;67098;51.140;4.088;2023-02-15T01:55:14;6.00;85.40
32217;DHT22;67098;51.140;4.088;2023-02-15T01:57:42;5.90;85.70
32217;DHT22;67098;51.140;4.088;2023-02-15T02:00:08;5.90;85.70
32217;DHT22;67098;51.140;4.088;2023-02-15T02:02:34;5.90;85.60
32217;DHT22;67098;51.140;4.088;2023-02-15T02:05:02;5.90;85.50
32217;DHT22;67098;51.140;4.088;2023-02-15T02:07:33;5.80;85.60
32217;DHT22;67098;51.140;4.088;2023-02-15T02:10:01;5.80;85.60
32217;DHT22;67098;51.140;4.088;2023-02-15T02:12:27;5.80;85.80
32217;DHT22;67098;51.140;4.088;2023-02-15T02:14:53;5.70;85.70
32217;DHT22;67098;51.140;4.088;2023-02-15T02:28:44;5.70;85.70
32217;DHT22;67098;51.140;4.088;2023-02-15T02:34:18;5.60;85.20
32217;DHT22;67098;51.140;4.088;2023-02-15T02:36:58;5.50;86.30
32217;DHT22;67098;51.140;4.088;2023-02-15T02:39:37;5.50;85.90
32217;DHT22;67098;51.140;4.088;2023-02-15T02:42:20;5.60;85.60
32217;DHT22;67098;51.140;4.088;2023-02-15T02:47:43;5.50;85.60
32217;DHT22;67098;51.140;4.088;2023-02-15T02:50:16;5.40;85.90
32217;DHT22;67098;51.140;4.088;2023-02-15T02:52:45;5.40;86.30
32217;DHT22;67098;51.140;4.088;2023-02-15T02:55:25;5.40;86.00
32217;DHT22;67098;51.140;4.088;2023-02-15T02:58:03;5.40;86.30
32217;DHT22;67098;51.140;4.088;2023-02-15T03:00:34;5.40;86.20
32217;DHT22;67098;51.140;4.088;2023-02-15T03:03:12;5.40;86.00
32217;DHT22;67098;51.140;4.088;2023-02-15T03:05:44;5.30;85.90
32217;DHT22;67098;51.140;4.088;2023-02-15T03:08:11;5.30;86.10
32217;DHT22;67098;51.140;4.088;2023-02-15T03:10:40;5.30;86.10
32217;DHT22;67098;51.140;4.088;2023-02-15T03:13:06;5.20;86.30
32217;DHT22;67098;51.140;4.088;2023-02-15T03:15:39;5.20;86.30
32217;DHT22;67098;51.140;4.088;2023-02-15T03:18:46;5.20;86.50
32217;DHT22;67098;51.140;4.088;2023-02-15T03:21:21;5.20;86.40
32217;DHT22;67098;51.140;4.088;2023-02-15T03:24:02;5.10;86.40
32217;DHT22;67098;51.140;4.088;2023-02-15T03:26:30;5.20;86.70
32217;DHT22;67098;51.140;4.088;2023-02-15T03:28:58;5.10;86.70
32217;DHT22;67098;51.140;4.088;2023-02-15T03:31:26;5.10;86.70
32217;DHT22;67098;51.140;4.088;2023-02-15T03:33:59;5.10;86.80
32217;DHT22;67098;51.140;4.088;2023-02-15T03:36:44;5.10;86.70
32217;DHT22;67098;51.140;4.088;2023-02-15T03:42:10;5.10;86.70
32217;DHT22;67098;51.140;4.088;2023-02-15T03:44:51;5.00;86.80
32217;DHT22;67098;51.140;4.088;2023-02-15T03:47:24;5.00;86.90
32217;DHT22;67098;51.140;4.088;2023-02-15T03:52:20;5.00;86.80
32217;DHT22;67098;51.140;4.088;2023-02-15T03:54:48;4.90;86.70
32217;DHT22;67098;51.140;4.088;2023-02-15T03:57:24;4.90;86.90
32217;DHT22;67098;51.140;4.088;2023-02-15T04:00:21;4.90;86.90
32217;DHT22;67098;51.140;4.088;2023-02-15T04:05:42;4.90;86.90
32217;DHT22;67098;51.140;4.088;2023-02-15T04:08:09;4.80;87.00
32217;DHT22;67098;51.140;4.088;2023-02-15T04:10:35;4.90;87.10
32217;DHT22;67098;51.140;4.088;2023-02-15T04:13:22;4.90;86.90
32217;DHT22;67098;51.140;4.088;2023-02-15T04:15:48;4.90;86.80
32217;DHT22;67098;51.140;4.088;2023-02-15T04:18:31;4.90;86.80
32217;DHT22;67098;51.140;4.088;2023-02-15T04:21:16;5.00;86.40
32217;DHT22;67098;51.140;4.088;2023-02-15T04:24:00;4.90;86.20
32217;DHT22;67098;51.140;4.088;2023-02-15T04:26:45;4.80;86.30
32217;DHT22;67098;51.140;4.088;2023-02-15T04:29:13;4.80;86.40
32217;DHT22;67098;51.140;4.088;2023-02-15T04:31:38;4.80;86.30
32217;DHT22;67098;51.140;4.088;2023-02-15T04:34:04;4.80;86.20
32217;DHT22;67098;51.140;4.088;2023-02-15T04:36:30;4.80;86.40
32217;DHT22;67098;51.140;4.088;2023-02-15T04:38:55;4.80;86.40
32217;DHT22;67098;51.140;4.088;2023-02-15T04:41:21;4.80;86.20
32217;DHT22;67098;51.140;4.088;2023-02-15T04:43:47;4.80;86.40
32217;DHT22;67098;51.140;4.088;2023-02-15T04:46:12;4.70;86.40
32217;DHT22;67098;51.140;4.088;2023-02-15T04:48:38;4.70;86.60
32217;DHT22;67098;51.140;4.088;2023-02-15T04:51:07;4.70;86.60
32217;DHT22;67098;51.140;4.088;2023-02-15T04:53:33;4.70;86.60
32217;DHT22;67098;51.140;4.088;2023-02-15T04:55:59;4.70;86.40
32217;DHT22;67098;51.140;4.088;2023-02-15T04:58:24;4.70;86.30
32217;DHT22;67098;51.140;4.088;2023-02-15T05:00:50;4.70;86.30
32217;DHT22;67098;51.140;4.088;2023-02-15T05:03:16;4.70;86.50
32217;DHT22;67098;51.140;4.088;2023-02-15T05:05:42;4.70;86.30
32217;DHT22;67098;51.140;4.088;2023-02-15T05:08:07;4.60;86.60
32217;DHT22;67098;51.140;4.088;2023-02-15T05:10:33;4.70;86.30
32217;DHT22;67098;51.140;4.088;2023-02-15T05:12:59;4.70;86.20
32217;DHT22;67098;51.140;4.088;2023-02-15T05:15:24;4.60;86.20
32217;DHT22;67098;51.140;4.088;2023-02-15T05:17:50;4.60;86.30
32217;DHT22;67098;51.140;4.088;2023-02-15T05:20:16;4.60;86.40
32217;DHT22;67098;51.140;4.088;2023-02-15T05:22:41;4.60;86.10
32217;DHT22;67098;51.140;4.088;2023-02-15T05:25:08;4.60;86.30
32217;DHT22;67098;51.140;4.088;2023-02-15T05:27:53;4.60;86.30
32217;DHT22;67098;51.140;4.088;2023-02-15T05:30:37;4.60;86.40
32217;DHT22;67098;51.140;4.088;2023-02-15T05:33:05;4.60;86.50
32217;DHT22;67098;51.140;4.088;2023-02-15T05:35:32;4.60;86.50
32217;DHT22;67098;51.140;4.088;2023-02-15T05:37:58;4.50;86.30
32217;DHT22;67098;51.140;4.088;2023-02-15T05:40:23;4.50;86.50
32217;DHT22;67098;51.140;4.088;2023-02-15T05:42:49;4.50;86.60
32217;DHT22;67098;51.140;4.088;2023-02-15T05:45:14;4.50;86.80
32217;DHT22;67098;51.140;4.088;2023-02-15T05:47:41;4.50;86.90
32217;DHT22;67098;51.140;4.088;2023-02-15T05:50:07;4.40;87.00
32217;DHT22;67098;51.140;4.088;2023-02-15T05:52:34;4.40;87.20
32217;DHT22;67098;51.140;4.088;2023-02-15T05:54:59;4.40;87.20
32217;DHT22;67098;51.140;4.088;2023-02-15T05:57:26;4.40;87.40
32217;DHT22;67098;51.140;4.088;2023-02-15T05:59:52;4.40;87.50
32217;DHT22;67098;51.140;4.088;2023-02-15T06:02:17;4.40;87.70
32217;DHT22;67098;51.140;4.088;2023-02-15T06:04:43;4.40;87.70
32217;DHT22;67098;51.140;4.088;2023-02-15T06:07:09;4.40;87.60
32217;DHT22;67098;51.140;4.088;2023-02-15T06:09:34;4.40;87.60
32217;DHT22;67098;51.140;4.088;2023-02-15T06:12:00;4.40;87.50
32217;DHT22;67098;51.140;4.088;2023-02-15T06:14:26;4.40;87.50
32217;DHT22;67098;51.140;4.088;2023-02-15T06:16:51;4.40;87.70
32217;DHT22;67098;51.140;4.088;2023-02-15T06:19:17;4.30;87.60
32217;DHT22;67098;51.140;4.088;2023-02-15T06:21:43;4.30;88.10
32217;DHT22;67098;51.140;4.088;2023-02-15T06:24:09;4.30;88.10
32217;DHT22;67098;51.140;4.088;2023-02-15T06:26:34;4.30;88.20
32217;DHT22;67098;51.140;4.088;2023-02-15T06:29:00;4.30;88.00
32217;DHT22;67098;51.140;4.088;2023-02-15T06:31:25;4.30;88.20
32217;DHT22;67098;51.140;4.088;2023-02-15T06:33:51;4.30;88.10
32217;DHT22;67098;51.140;4.088;2023-02-15T06:36:17;4.20;88.00
32217;DHT22;67098;51.140;4.088;2023-02-15T06:38:42;4.20;88.60
32217;DHT22;67098;51.140;4.088;2023-02-15T06:41:08;4.20;88.20
32217;DHT22;67098;51.140;4.088;2023-02-15T06:43:33;4.20;88.40
32217;DHT22;67098;51.140;4.088;2023-02-15T06:46:00;4.20;88.50
32217;DHT22;67098;51.140;4.088;2023-02-15T06:48:26;4.20;88.90
32217;DHT22;67098;51.140;4.088;2023-02-15T06:50:51;4.30;89.10
32217;DHT22;67098;51.140;4.088;2023-02-15T06:53:17;4.30;89.20
32217;DHT22;67098;51.140;4.088;2023-02-15T06:55:43;4.30;89.30
32217;DHT22;67098;51.140;4.088;2023-02-15T06:58:08;4.30;89.10
32217;DHT22;67098;51.140;4.088;2023-02-15T07:00:34;4.30;89.10
32217;DHT22;67098;51.140;4.088;2023-02-15T07:03:00;4.30;89.40
32217;DHT22;67098;51.140;4.088;2023-02-15T07:05:27;4.30;89.40
32217;DHT22;67098;51.140;4.088;2023-02-15T07:07:57;4.40;89.60
32217;DHT22;67098;51.140;4.088;2023-02-15T07:10:23;4.40;89.70
32217;DHT22;67098;51.140;4.088;2023-02-15T07:12:49;4.40;89.70
32217;DHT22;67098;51.140;4.088;2023-02-15T07:15:16;4.50;89.60
32217;DHT22;67098;51.140;4.088;2023-02-15T07:17:42;4.50;89.70
32217;DHT22;67098;51.140;4.088;2023-02-15T07:20:12;4.50;89.40
32217;DHT22;67098;51.140;4.088;2023-02-15T07:22:38;4.50;90.00
32217;DHT22;67098;51.140;4.088;2023-02-15T07:25:05;4.60;90.20
32217;DHT22;67098;51.140;4.088;2023-02-15T07:27:31;4.60;90.50
32217;DHT22;67098;51.140;4.088;2023-02-15T07:29:57;4.70;90.50
32217;DHT22;67098;51.140;4.088;2023-02-15T07:32:23;4.80;90.50
32217;DHT22;67098;51.140;4.088;2023-02-15T07:34:48;4.80;90.40
32217;DHT22;67098;51.140;4.088;2023-02-15T07:37:14;4.80;90.50
32217;DHT22;67098;51.140;4.088;2023-02-15T07:39:39;4.90;90.60
32217;DHT22;67098;51.140;4.088;2023-02-15T07:42:05;5.10;90.50
32217;DHT22;67098;51.140;4.088;2023-02-15T07:44:31;5.10;90.50
32217;DHT22;67098;51.140;4.088;2023-02-15T07:46:56;5.20;90.30
32217;DHT22;67098;51.140;4.088;2023-02-15T07:49:22;5.20;90.40
32217;DHT22;67098;51.140;4.088;2023-02-15T07:51:48;5.30;90.50
32217;DHT22;67098;51.140;4.088;2023-02-15T07:54:14;5.30;90.50
32217;DHT22;67098;51.140;4.088;2023-02-15T07:56:39;5.40;90.60
32217;DHT22;67098;51.140;4.088;2023-02-15T07:59:05;5.50;90.80
32217;DHT22;67098;51.140;4.088;2023-02-15T08:01:33;5.50;91.10
32217;DHT22;67098;51.140;4.088;2023-02-15T08:04:00;5.60;91.10
32217;DHT22;67098;51.140;4.088;2023-02-15T08:06:30;5.70;90.90
32217;DHT22;67098;51.140;4.088;2023-02-15T08:08:56;5.80;91.10
32217;DHT22;67098;51.140;4.088;2023-02-15T08:11:24;5.90;91.10
32217;DHT22;67098;51.140;4.088;2023-02-15T08:19:08;6.30;90.30
32217;DHT22;67098;51.140;4.088;2023-02-15T08:21:36;6.30;90.40
32217;DHT22;67098;51.140;4.088;2023-02-15T08:24:03;6.40;91.20
32217;DHT22;67098;51.140;4.088;2023-02-15T08:26:30;6.60;91.20
32217;DHT22;67098;51.140;4.088;2023-02-15T08:28:57;6.80;91.40
32217;DHT22;67098;51.140;4.088;2023-02-15T08:31:23;6.90;91.50
32217;DHT22;67098;51.140;4.088;2023-02-15T08:33:50;7.00;91.60
32217;DHT22;67098;51.140;4.088;2023-02-15T08:36:19;7.20;91.40
32217;DHT22;67098;51.140;4.088;2023-02-15T08:38:46;7.30;91.20
32217;DHT22;67098;51.140;4.088;2023-02-15T08:43:39;7.60;91.40
32217;DHT22;67098;51.140;4.088;2023-02-15T08:46:06;7.80;91.30
32217;DHT22;67098;51.140;4.088;2023-02-15T08:48:32;7.90;91.00
32217;DHT22;67098;51.140;4.088;2023-02-15T08:50:57;7.90;91.10
32217;DHT22;67098;51.140;4.088;2023-02-15T08:53:23;8.00;91.00
32217;DHT22;67098;51.140;4.088;2023-02-15T08:55:56;8.10;91.00
32217;DHT22;67098;51.140;4.088;2023-02-15T08:58:22;8.10;90.80
32217;DHT22;67098;51.140;4.088;2023-02-15T09:00:48;8.20;90.80
32217;DHT22;67098;51.140;4.088;2023-02-15T09:03:14;8.20;90.80
32217;DHT22;67098;51.140;4.088;2023-02-15T09:05:39;8.30;90.90
32217;DHT22;67098;51.140;4.088;2023-02-15T09:08:05;8.40;90.80
32217;DHT22;67098;51.140;4.088;2023-02-15T09:10:31;8.50;90.80
32217;DHT22;67098;51.140;4.088;2023-02-15T09:12:56;8.60;90.70
32217;DHT22;67098;51.140;4.088;2023-02-15T09:15:22;8.70;90.70
32217;DHT22;67098;51.140;4.088;2023-02-15T09:17:47;8.70;90.40
32217;DHT22;67098;51.140;4.088;2023-02-15T09:20:13;8.80;90.20
32217;DHT22;67098;51.140;4.088;2023-02-15T09:22:39;8.90;90.20
32217;DHT22;67098;51.140;4.088;2023-02-15T09:25:05;8.90;90.10
32217;DHT22;67098;51.140;4.088;2023-02-15T09:27:30;9.00;90.10
32217;DHT22;67098;51.140;4.088;2023-02-15T09:29:56;9.10;90.10
32217;DHT22;67098;51.140;4.088;2023-02-15T09:32:21;9.10;90.00
32217;DHT22;67098;51.140;4.088;2023-02-15T09:34:47;9.10;90.00
32217;DHT22;67098;51.140;4.088;2023-02-15T09:37:13;9.20;89.20
32217;DHT22;67098;51.140;4.088;2023-02-15T09:39:41;9.30;88.40
32217;DHT22;67098;51.140;4.088;2023-02-15T10:01:42;9.70;88.10
32217;DHT22;67098;51.140;4.088;2023-02-15T10:10:08;9.90;87.10
32217;DHT22;67098;51.140;4.088;2023-02-15T10:15:22;10.00;87.20
32217;DHT22;67098;51.140;4.088;2023-02-15T10:20:56;10.10;87.00
32217;DHT22;67098;51.140;4.088;2023-02-15T10:23:48;10.20;87.00
32217;DHT22;67098;51.140;4.088;2023-02-15T10:26:20;10.30;86.80
32217;DHT22;67098;51.140;4.088;2023-02-15T10:29:04;10.40;86.20
32217;DHT22;67098;51.140;4.088;2023-02-15T10:34:39;10.50;87.00
32217;DHT22;67098;51.140;4.088;2023-02-15T10:37:51;10.60;86.60
32217;DHT22;67098;51.140;4.088;2023-02-15T10:45:27;11.00;86.10
32217;DHT22;67098;51.140;4.088;2023-02-15T10:48:21;11.20;85.50
32217;DHT22;67098;51.140;4.088;2023-02-15T10:50:54;11.30;85.10
32217;DHT22;67098;51.140;4.088;2023-02-15T10:57:22;11.70;84.40
32217;DHT22;67098;51.140;4.088;2023-02-15T11:07:40;12.30;82.90
32217;DHT22;67098;51.140;4.088;2023-02-15T11:10:27;12.50;82.80
32217;DHT22;67098;51.140;4.088;2023-02-15T11:12:56;12.60;82.20
32217;DHT22;67098;51.140;4.088;2023-02-15T11:15:31;12.60;82.20
32217;DHT22;67098;51.140;4.088;2023-02-15T11:18:03;12.60;81.00
32217;DHT22;67098;51.140;4.088;2023-02-15T11:20:35;12.70;81.00
32217;DHT22;67098;51.140;4.088;2023-02-15T11:23:12;12.80;81.20
32217;DHT22;67098;51.140;4.088;2023-02-15T11:25:40;12.80;81.00
32217;DHT22;67098;51.140;4.088;2023-02-15T11:28:18;13.00;80.50
32217;DHT22;67098;51.140;4.088;2023-02-15T11:30:47;13.10;79.80
32217;DHT22;67098;51.140;4.088;2023-02-15T11:33:24;13.30;79.50
32217;DHT22;67098;51.140;4.088;2023-02-15T11:36:13;13.30;79.70
32217;DHT22;67098;51.140;4.088;2023-02-15T11:38:37;13.50;79.70
32217;DHT22;67098;51.140;4.088;2023-02-15T11:41:15;13.60;78.80
32217;DHT22;67098;51.140;4.088;2023-02-15T11:46:11;13.90;78.10
32217;DHT22;67098;51.140;4.088;2023-02-15T11:48:38;14.10;77.80
32217;DHT22;67098;51.140;4.088;2023-02-15T11:51:04;14.30;77.30
32217;DHT22;67098;51.140;4.088;2023-02-15T11:53:36;14.40;76.60
32217;DHT22;67098;51.140;4.088;2023-02-15T11:56:03;14.50;76.80
32217;DHT22;67098;51.140;4.088;2023-02-15T12:01:40;14.50;75.30
32217;DHT22;67098;51.140;4.088;2023-02-15T12:04:36;14.40;76.00
32217;DHT22;67098;51.140;4.088;2023-02-15T12:07:19;14.60;76.10
32217;DHT22;67098;51.140;4.088;2023-02-15T12:12:39;15.00;75.30
32217;DHT22;67098;51.140;4.088;2023-02-15T12:15:07;15.20;74.50
32217;DHT22;67098;51.140;4.088;2023-02-15T12:17:53;15.20;73.80
32217;DHT22;67098;51.140;4.088;2023-02-15T12:20:21;15.30;73.50
32217;DHT22;67098;51.140;4.088;2023-02-15T12:22:53;15.40;73.70
32217;DHT22;67098;51.140;4.088;2023-02-15T12:27:49;15.70;73.50
32217;DHT22;67098;51.140;4.088;2023-02-15T12:32:51;15.90;72.80
32217;DHT22;67098;51.140;4.088;2023-02-15T12:35:28;16.10;72.80
32217;DHT22;67098;51.140;4.088;2023-02-15T12:37:56;16.10;71.30
32217;DHT22;67098;51.140;4.088;2023-02-15T12:40:26;16.10;71.30
32217;DHT22;67098;51.140;4.088;2023-02-15T12:42:53;16.20;71.90
32217;DHT22;67098;51.140;4.088;2023-02-15T12:45:29;16.20;71.40
32217;DHT22;67098;51.140;4.088;2023-02-15T12:50:47;16.60;71.30
32217;DHT22;67098;51.140;4.088;2023-02-15T12:53:38;16.70;71.30
32217;DHT22;67098;51.140;4.088;2023-02-15T12:56:06;16.80;71.10
32217;DHT22;67098;51.140;4.088;2023-02-15T12:58:33;16.70;70.30
32217;DHT22;67098;51.140;4.088;2023-02-15T13:03:38;16.50;70.30
32217;DHT22;67098;51.140;4.088;2023-02-15T13:06:05;16.40;70.10
32217;DHT22;67098;51.140;4.088;2023-02-15T13:08:39;16.40;70.20
32217;DHT22;67098;51.140;4.088;2023-02-15T13:11:11;16.40;70.70
32217;DHT22;67098;51.140;4.088;2023-02-15T13:13:55;16.40;71.00
32217;DHT22;67098;51.140;4.088;2023-02-15T13:16:37;16.50;70.90
32217;DHT22;67098;51.140;4.088;2023-02-15T13:19:12;16.40;71.40
32217;DHT22;67098;51.140;4.088;2023-02-15T13:21:43;16.30;71.00
32217;DHT22;67098;51.140;4.088;2023-02-15T13:26:45;16.50;70.70
32217;DHT22;67098;51.140;4.088;2023-02-15T13:29:22;16.60;69.90
32217;DHT22;67098;51.140;4.088;2023-02-15T13:31:49;16.60;70.80
32217;DHT22;67098;51.140;4.088;2023-02-15T13:34:20;16.90;70.50
32217;DHT22;67098;51.140;4.088;2023-02-15T14:04:19;19.60;63.10
32217;DHT22;67098;51.140;4.088;2023-02-15T14:07:30;19.50;63.10
32217;DHT22;67098;51.140;4.088;2023-02-15T14:12:58;19.40;62.80
32217;DHT22;67098;51.140;4.088;2023-02-15T14:18:46;19.50;63.50
32217;DHT22;67098;51.140;4.088;2023-02-15T14:21:21;19.50;63.10
32217;DHT22;67098;51.140;4.088;2023-02-15T14:24:06;19.60;63.70
32217;DHT22;67098;51.140;4.088;2023-02-15T14:29:27;19.50;63.60
32217;DHT22;67098;51.140;4.088;2023-02-15T14:32:00;19.60;62.80
32217;DHT22;67098;51.140;4.088;2023-02-15T14:37:10;19.70;62.60
32217;DHT22;67098;51.140;4.088;2023-02-15T14:39:57;19.70;62.70
32217;DHT22;67098;51.140;4.088;2023-02-15T14:43:01;19.80;62.50
32217;DHT22;67098;51.140;4.088;2023-02-15T14:45:36;19.70;61.50
32217;DHT22;67098;51.140;4.088;2023-02-15T14:48:21;19.60;61.90
32217;DHT22;67098;51.140;4.088;2023-02-15T14:50:49;19.40;61.70
32217;DHT22;67098;51.140;4.088;2023-02-15T14:55:41;18.90;62.70
32217;DHT22;67098;51.140;4.088;2023-02-15T14:58:11;18.70;62.70
32217;DHT22;67098;51.140;4.088;2023-02-15T15:00:38;18.60;62.90
32217;DHT22;67098;51.140;4.088;2023-02-15T15:03:24;18.60;63.30
32217;DHT22;67098;51.140;4.088;2023-02-15T15:05:56;18.30;64.00
32217;DHT22;67098;51.140;4.088;2023-02-15T15:08:28;18.40;63.70
32217;DHT22;67098;51.140;4.088;2023-02-15T15:10:56;18.50;63.50
32217;DHT22;67098;51.140;4.088;2023-02-15T15:14:00;18.40;63.80
32217;DHT22;67098;51.140;4.088;2023-02-15T15:19:04;17.80;64.50
32217;DHT22;67098;51.140;4.088;2023-02-15T15:49:57;15.40;67.00
32217;DHT22;67098;51.140;4.088;2023-02-15T15:52:24;15.30;67.40
32217;DHT22;67098;51.140;4.088;2023-02-15T15:55:03;15.30;67.50
32217;DHT22;67098;51.140;4.088;2023-02-15T15:57:33;15.20;67.90
32217;DHT22;67098;51.140;4.088;2023-02-15T16:00:00;15.10;68.20
32217;DHT22;67098;51.140;4.088;2023-02-15T16:02:27;15.00;68.50
32217;DHT22;67098;51.140;4.088;2023-02-15T16:04:53;14.90;68.90
32217;DHT22;67098;51.140;4.088;2023-02-15T16:12:20;14.60;70.40
32217;DHT22;67098;51.140;4.088;2023-02-15T16:14:46;14.60;71.30
32217;DHT22;67098;51.140;4.088;2023-02-15T16:17:23;14.50;71.90
32217;DHT22;67098;51.140;4.088;2023-02-15T16:19:50;14.40;72.10
32217;DHT22;67098;51.140;4.088;2023-02-15T16:22:23;14.30;73.40
32217;DHT22;67098;51.140;4.088;2023-02-15T16:27:44;14.20;74.60
32217;DHT22;67098;51.140;4.088;2023-02-15T16:30:34;14.00;76.30
32217;DHT22;67098;51.140;4.088;2023-02-15T16:33:11;13.90;76.70
32217;DHT22;67098;51.140;4.088;2023-02-15T16:35:40;13.80;77.20
32217;DHT22;67098;51.140;4.088;2023-02-15T16:38:09;13.90;77.20
32217;DHT22;67098;51.140;4.088;2023-02-15T16:40:40;13.80;77.40
32217;DHT22;67098;51.140;4.088;2023-02-15T16:43:15;13.80;76.80
32217;DHT22;67098;51.140;4.088;2023-02-15T16:45:42;13.80;76.70
32217;DHT22;67098;51.140;4.088;2023-02-15T16:48:22;13.80;76.80
32217;DHT22;67098;51.140;4.088;2023-02-15T16:50:54;13.80;77.00
32217;DHT22;67098;51.140;4.088;2023-02-15T16:53:26;13.80;76.30
32217;DHT22;67098;51.140;4.088;2023-02-15T16:55:59;13.90;76.20
32217;DHT22;67098;51.140;4.088;2023-02-15T16:58:32;13.80;76.10
32217;DHT22;67098;51.140;4.088;2023-02-15T17:01:02;13.80;76.00
32217;DHT22;67098;51.140;4.088;2023-02-15T17:03:28;13.70;76.40
32217;DHT22;67098;51.140;4.088;2023-02-15T17:05:58;13.70;76.40
32217;DHT22;67098;51.140;4.088;2023-02-15T17:08:28;13.60;76.50
32217;DHT22;67098;51.140;4.088;2023-02-15T17:11:11;13.70;76.40
32217;DHT22;67098;51.140;4.088;2023-02-15T17:13:37;13.60;76.40
32217;DHT22;67098;51.140;4.088;2023-02-15T17:21:17;13.40;76.90
32217;DHT22;67098;51.140;4.088;2023-02-15T17:23:48;13.40;76.80
32217;DHT22;67098;51.140;4.088;2023-02-15T17:26:22;13.40;77.00
32217;DHT22;67098;51.140;4.088;2023-02-15T17:28:54;13.40;77.10
32217;DHT22;67098;51.140;4.088;2023-02-15T17:31:24;13.50;77.20
32217;DHT22;67098;51.140;4.088;2023-02-15T17:33:51;13.50;76.50
32217;DHT22;67098;51.140;4.088;2023-02-15T17:36:21;13.50;76.50
32217;DHT22;67098;51.140;4.088;2023-02-15T17:41:42;13.50;76.60
32217;DHT22;67098;51.140;4.088;2023-02-15T17:44:09;13.40;76.60
32217;DHT22;67098;51.140;4.088;2023-02-15T17:46:39;13.30;76.90
32217;DHT22;67098;51.140;4.088;2023-02-15T17:49:06;13.30;76.90
32217;DHT22;67098;51.140;4.088;2023-02-15T17:51:32;13.20;77.70
32217;DHT22;67098;51.140;4.088;2023-02-15T17:54:01;13.10;77.80
32217;DHT22;67098;51.140;4.088;2023-02-15T17:56:45;13.00;77.90
32217;DHT22;67098;51.140;4.088;2023-02-15T17:59:11;13.00;78.60
32217;DHT22;67098;51.140;4.088;2023-02-15T18:01:44;13.00;78.10
32217;DHT22;67098;51.140;4.088;2023-02-15T18:04:30;13.00;78.20
32217;DHT22;67098;51.140;4.088;2023-02-15T18:07:17;13.00;78.30
32217;DHT22;67098;51.140;4.088;2023-02-15T18:10:03;13.00;78.40
32217;DHT22;67098;51.140;4.088;2023-02-15T18:12:47;12.90;78.50
32217;DHT22;67098;51.140;4.088;2023-02-15T18:15:12;12.90;78.70
32217;DHT22;67098;51.140;4.088;2023-02-15T18:17:45;12.80;79.00
32217;DHT22;67098;51.140;4.088;2023-02-15T18:20:21;12.70;79.50
32217;DHT22;67098;51.140;4.088;2023-02-15T18:22:48;12.80;79.30
32217;DHT22;67098;51.140;4.088;2023-02-15T18:25:17;12.70;79.30
32217;DHT22;67098;51.140;4.088;2023-02-15T18:27:43;12.70;79.30
32217;DHT22;67098;51.140;4.088;2023-02-15T18:30:17;12.60;79.50
32217;DHT22;67098;51.140;4.088;2023-02-15T18:32:43;12.60;79.80
32217;DHT22;67098;51.140;4.088;2023-02-15T18:35:15;12.60;79.80
32217;DHT22;67098;51.140;4.088;2023-02-15T18:37:42;12.50;79.90
32217;DHT22;67098;51.140;4.088;2023-02-15T18:40:19;12.40;80.50
32217;DHT22;67098;51.140;4.088;2023-02-15T18:42:45;12.30;81.00
32217;DHT22;67098;51.140;4.088;2023-02-15T18:45:24;12.30;81.30
32217;DHT22;67098;51.140;4.088;2023-02-15T18:47:53;12.30;81.60
32217;DHT22;67098;51.140;4.088;2023-02-15T18:50:20;12.20;81.80
32217;DHT22;67098;51.140;4.088;2023-02-15T18:52:48;12.10;82.20
32217;DHT22;67098;51.140;4.088;2023-02-15T18:55:18;12.10;82.80
32217;DHT22;67098;51.140;4.088;2023-02-15T18:57:45;12.00;82.90
32217;DHT22;67098;51.140;4.088;2023-02-15T19:02:41;12.00;82.90
32217;DHT22;67098;51.140;4.088;2023-02-15T19:05:06;12.00;83.10
32217;DHT22;67098;51.140;4.088;2023-02-15T19:07:34;11.80;83.90
32217;DHT22;67098;51.140;4.088;2023-02-15T19:10:01;11.70;84.10
32217;DHT22;67098;51.140;4.088;2023-02-15T19:12:28;11.70;84.00
32217;DHT22;67098;51.140;4.088;2023-02-15T19:14:54;11.60;84.50
32217;DHT22;67098;51.140;4.088;2023-02-15T19:17:21;11.60;84.30